sensor_id;sensor_type;location;lat;lon;timestamp;pressure;altitude;pressure_sealevel;temperature;humidity
34297;BME280;20564;42.902;25.336;2023-03-14T00:02:16;97399.78;;;0.23;82.30
34297;BME280;20564;42.902;25.336;2023-03-14T00:04:56;97409.44;;;0.20;82.54
34297;BME280;20564;42.902;25.336;2023-03-14T00:07:48;97407.41;;;0.27;82.82
34297;BME280;20564;42.902;25.336;2023-03-14T00:10:25;97403.28;;;0.22;83.17
34297;BME280;20564;42.902;25.336;2023-03-14T00:12:52;97412.84;;;0.20;82.06
34297;BME280;20564;42.902;25.336;2023-03-14T00:15:19;97396.84;;;0.12;83.18
34297;BME280;20564;42.902;25.336;2023-03-14T00:17:46;97405.53;;;0.11;82.87
34297;BME280;20564;42.902;25.336;2023-03-14T00:20:14;97404.25;;;0.01;82.70
34297;BME280;20564;42.902;25.336;2023-03-14T00:22:41;97395.84;;;-0.04;83.66
34297;BME280;20564;42.902;25.336;2023-03-14T00:25:10;97392.38;;;-0.03;83.96
34297;BME280;20564;42.902;25.336;2023-03-14T00:27:38;97391.13;;;-0.13;83.99
34297;BME280;20564;42.902;25.336;2023-03-14T00:30:14;97385.22;;;-0.36;84.38
34297;BME280;20564;42.902;25.336;2023-03-14T00:33:14;97389.25;;;-0.49;85.31
34297;BME280;20564;42.902;25.336;2023-03-14T00:36:07;97382.00;;;-0.41;86.43
34297;BME280;20564;42.902;25.336;2023-03-14T00:38:41;97371.25;;;-0.32;86.16
34297;BME280;20564;42.902;25.336;2023-03-14T00:41:19;97368.66;;;-0.32;85.92
34297;BME280;20564;42.902;25.336;2023-03-14T00:43:57;97363.72;;;-0.17;85.27
34297;BME280;20564;42.902;25.336;2023-03-14T00:46:29;97355.81;;;-0.14;84.26
34297;BME280;20564;42.902;25.336;2023-03-14T00:49:11;97361.59;;;-0.09;84.41
34297;BME280;20564;42.902;25.336;2023-03-14T00:51:43;97362.94;;;-0.19;84.63
34297;BME280;20564;42.902;25.336;2023-03-14T00:54:13;97351.53;;;-0.15;84.76
34297;BME280;20564;42.902;25.336;2023-03-14T00:56:42;97350.78;;;-0.17;84.40
34297;BME280;20564;42.902;25.336;2023-03-14T00:59:13;97350.22;;;-0.24;85.82
34297;BME280;20564;42.902;25.336;2023-03-14T01:01:43;97349.06;;;-0.18;84.97
34297;BME280;20564;42.902;25.336;2023-03-14T01:04:15;97344.59;;;-0.15;83.93
34297;BME280;20564;42.902;25.336;2023-03-14T01:06:43;97341.75;;;-0.28;84.12
34297;BME280;20564;42.902;25.336;2023-03-14T01:09:14;97339.25;;;-0.29;84.84
34297;BME280;20564;42.902;25.336;2023-03-14T01:11:45;97340.97;;;-0.30;84.70
34297;BME280;20564;42.902;25.336;2023-03-14T01:14:14;97341.75;;;-0.28;84.74
34297;BME280;20564;42.902;25.336;2023-03-14T01:16:43;97340.22;;;-0.32;84.34
34297;BME280;20564;42.902;25.336;2023-03-14T01:19:12;97347.84;;;-0.29;84.40
34297;BME280;20564;42.902;25.336;2023-03-14T01:21:41;97342.22;;;-0.38;83.69
34297;BME280;20564;42.902;25.336;2023-03-14T01:24:11;97336.50;;;-0.45;85.25
34297;BME280;20564;42.902;25.336;2023-03-14T01:26:44;97331.31;;;-0.45;85.74
34297;BME280;20564;42.902;25.336;2023-03-14T01:29:13;97332.81;;;-0.39;85.87
34297;BME280;20564;42.902;25.336;2023-03-14T01:31:42;97337.16;;;-0.40;85.32
34297;BME280;20564;42.902;25.336;2023-03-14T01:34:14;97330.97;;;-0.37;85.08
34297;BME280;20564;42.902;25.336;2023-03-14T01:36:43;97326.63;;;-0.37;85.32
34297;BME280;20564;42.902;25.336;2023-03-14T01:39:16;97326.50;;;-0.34;84.71
34297;BME280;20564;42.902;25.336;2023-03-14T01:41:43;97327.56;;;-0.38;84.70
34297;BME280;20564;42.902;25.336;2023-03-14T01:44:11;97320.63;;;-0.37;84.68
34297;BME280;20564;42.902;25.336;2023-03-14T01:46:43;97315.06;;;-0.28;84.44
34297;BME280;20564;42.902;25.336;2023-03-14T01:54:31;97308.06;;;-0.45;84.02
34297;BME280;20564;42.902;25.336;2023-03-14T01:57:18;97311.69;;;-0.49;84.25
34297;BME280;20564;42.902;25.336;2023-03-14T01:59:52;97315.59;;;-0.59;83.90
34297;BME280;20564;42.902;25.336;2023-03-14T02:02:23;97306.94;;;-0.58;84.41
34297;BME280;20564;42.902;25.336;2023-03-14T02:04:56;97313.72;;;-0.56;84.37
34297;BME280;20564;42.902;25.336;2023-03-14T02:07:33;97308.97;;;-0.65;84.66
34297;BME280;20564;42.902;25.336;2023-03-14T02:10:02;97301.41;;;-0.69;85.01
34297;BME280;20564;42.902;25.336;2023-03-14T02:12:31;97305.53;;;-0.65;85.34
34297;BME280;20564;42.902;25.336;2023-03-14T02:14:59;97300.22;;;-0.62;85.16
34297;BME280;20564;42.902;25.336;2023-03-14T02:17:26;97297.78;;;-0.65;85.53
34297;BME280;20564;42.902;25.336;2023-03-14T02:22:56;97295.03;;;-0.62;84.92
34297;BME280;20564;42.902;25.336;2023-03-14T02:25:47;97294.28;;;-0.64;85.17
34297;BME280;20564;42.902;25.336;2023-03-14T02:28:16;97287.59;;;-0.68;85.11
34297;BME280;20564;42.902;25.336;2023-03-14T02:30:44;97289.13;;;-0.64;84.83
34297;BME280;20564;42.902;25.336;2023-03-14T02:33:14;97293.38;;;-0.63;85.00
34297;BME280;20564;42.902;25.336;2023-03-14T02:36:02;97281.38;;;-0.64;84.78
34297;BME280;20564;42.902;25.336;2023-03-14T02:41:28;97278.28;;;-0.73;85.05
34297;BME280;20564;42.902;25.336;2023-03-14T02:44:46;97287.22;;;-0.80;83.92
34297;BME280;20564;42.902;25.336;2023-03-14T02:47:19;97295.25;;;-0.86;84.67
34297;BME280;20564;42.902;25.336;2023-03-14T02:50:36;97288.19;;;-0.82;85.25
34297;BME280;20564;42.902;25.336;2023-03-14T02:53:04;97290.91;;;-0.85;84.61
34297;BME280;20564;42.902;25.336;2023-03-14T02:55:45;97297.81;;;-0.86;85.33
34297;BME280;20564;42.902;25.336;2023-03-14T02:58:16;97292.78;;;-0.89;85.57
34297;BME280;20564;42.902;25.336;2023-03-14T03:00:59;97299.78;;;-0.91;84.62
34297;BME280;20564;42.902;25.336;2023-03-14T03:03:28;97306.75;;;-0.93;85.68
34297;BME280;20564;42.902;25.336;2023-03-14T03:05:58;97305.19;;;-0.97;85.57
34297;BME280;20564;42.902;25.336;2023-03-14T03:08:38;97310.50;;;-1.00;86.05
34297;BME280;20564;42.902;25.336;2023-03-14T03:11:08;97303.22;;;-1.11;86.48
34297;BME280;20564;42.902;25.336;2023-03-14T03:13:37;97308.38;;;-1.11;86.53
34297;BME280;20564;42.902;25.336;2023-03-14T03:16:05;97323.03;;;-1.11;86.30
34297;BME280;20564;42.902;25.336;2023-03-14T03:18:35;97321.38;;;-1.12;87.11
34297;BME280;20564;42.902;25.336;2023-03-14T03:21:04;97317.03;;;-1.12;86.11
34297;BME280;20564;42.902;25.336;2023-03-14T03:23:37;97319.00;;;-1.17;86.10
34297;BME280;20564;42.902;25.336;2023-03-14T03:26:23;97315.50;;;-1.16;86.10
34297;BME280;20564;42.902;25.336;2023-03-14T03:28:59;97313.88;;;-1.18;85.69
34297;BME280;20564;42.902;25.336;2023-03-14T03:31:32;97311.53;;;-1.25;86.25
34297;BME280;20564;42.902;25.336;2023-03-14T03:34:06;97311.53;;;-1.25;85.89
34297;BME280;20564;42.902;25.336;2023-03-14T03:36:36;97310.66;;;-1.24;86.67
34297;BME280;20564;42.902;25.336;2023-03-14T03:39:08;97304.50;;;-1.21;86.37
34297;BME280;20564;42.902;25.336;2023-03-14T03:41:41;97308.19;;;-1.27;86.18
34297;BME280;20564;42.902;25.336;2023-03-14T03:44:16;97299.63;;;-1.27;86.77
34297;BME280;20564;42.902;25.336;2023-03-14T03:46:52;97299.66;;;-1.29;86.52
34297;BME280;20564;42.902;25.336;2023-03-14T03:49:31;97296.31;;;-1.31;86.40
34297;BME280;20564;42.902;25.336;2023-03-14T03:52:04;97296.69;;;-1.40;86.20
34297;BME280;20564;42.902;25.336;2023-03-14T03:54:38;97293.22;;;-1.39;86.53
34297;BME280;20564;42.902;25.336;2023-03-14T03:57:10;97293.34;;;-1.42;86.56
34297;BME280;20564;42.902;25.336;2023-03-14T03:59:39;97282.25;;;-1.44;86.82
34297;BME280;20564;42.902;25.336;2023-03-14T04:02:09;97283.78;;;-1.40;86.33
34297;BME280;20564;42.902;25.336;2023-03-14T04:04:39;97281.09;;;-1.37;85.95
34297;BME280;20564;42.902;25.336;2023-03-14T04:07:21;97276.03;;;-1.40;86.03
34297;BME280;20564;42.902;25.336;2023-03-14T04:09:53;97273.34;;;-1.37;86.16
34297;BME280;20564;42.902;25.336;2023-03-14T04:12:21;97271.88;;;-1.42;86.28
34297;BME280;20564;42.902;25.336;2023-03-14T04:14:48;97266.72;;;-1.42;86.46
34297;BME280;20564;42.902;25.336;2023-03-14T04:17:16;97260.69;;;-1.43;86.13
34297;BME280;20564;42.902;25.336;2023-03-14T04:19:49;97257.59;;;-1.51;86.31
34297;BME280;20564;42.902;25.336;2023-03-14T04:22:25;97247.00;;;-1.45;86.14
34297;BME280;20564;42.902;25.336;2023-03-14T04:24:55;97257.47;;;-1.48;86.19
34297;BME280;20564;42.902;25.336;2023-03-14T04:27:23;97244.88;;;-1.56;86.06
34297;BME280;20564;42.902;25.336;2023-03-14T04:29:50;97244.28;;;-1.62;86.83
34297;BME280;20564;42.902;25.336;2023-03-14T04:32:18;97240.81;;;-1.61;87.11
34297;BME280;20564;42.902;25.336;2023-03-14T04:34:45;97235.41;;;-1.55;86.01
34297;BME280;20564;42.902;25.336;2023-03-14T04:37:12;97238.88;;;-1.56;85.69
34297;BME280;20564;42.902;25.336;2023-03-14T04:39:39;97229.06;;;-1.68;86.14
34297;BME280;20564;42.902;25.336;2023-03-14T04:42:07;97232.31;;;-1.63;87.32
34297;BME280;20564;42.902;25.336;2023-03-14T04:44:34;97228.56;;;-1.56;86.81
34297;BME280;20564;42.902;25.336;2023-03-14T04:47:04;97231.19;;;-1.58;86.49
34297;BME280;20564;42.902;25.336;2023-03-14T04:49:34;97225.06;;;-1.55;86.81
34297;BME280;20564;42.902;25.336;2023-03-14T04:52:10;97222.41;;;-1.54;86.75
34297;BME280;20564;42.902;25.336;2023-03-14T04:54:39;97220.88;;;-1.58;87.35
34297;BME280;20564;42.902;25.336;2023-03-14T04:57:09;97225.16;;;-1.57;87.68
34297;BME280;20564;42.902;25.336;2023-03-14T04:59:39;97213.78;;;-1.53;87.96
34297;BME280;20564;42.902;25.336;2023-03-14T05:02:07;97223.41;;;-1.56;87.32
34297;BME280;20564;42.902;25.336;2023-03-14T05:04:37;97224.00;;;-1.50;87.78
34297;BME280;20564;42.902;25.336;2023-03-14T05:07:10;97227.19;;;-1.44;87.73
34297;BME280;20564;42.902;25.336;2023-03-14T05:09:44;97234.47;;;-1.34;86.72
34297;BME280;20564;42.902;25.336;2023-03-14T05:12:54;97223.19;;;-1.31;87.12
34297;BME280;20564;42.902;25.336;2023-03-14T05:15:29;97220.28;;;-1.24;86.96
34297;BME280;20564;42.902;25.336;2023-03-14T05:18:01;97210.44;;;-1.15;87.14
34297;BME280;20564;42.902;25.336;2023-03-14T05:20:39;97213.31;;;-1.03;86.46
34297;BME280;20564;42.902;25.336;2023-03-14T05:23:20;97201.88;;;-0.97;86.14
34297;BME280;20564;42.902;25.336;2023-03-14T05:25:53;97199.63;;;-0.86;85.94
34297;BME280;20564;42.902;25.336;2023-03-14T05:28:25;97191.63;;;-0.80;85.33
34297;BME280;20564;42.902;25.336;2023-03-14T05:30:54;97191.47;;;-0.77;85.81
34297;BME280;20564;42.902;25.336;2023-03-14T05:33:40;97183.00;;;-0.61;85.47
34297;BME280;20564;42.902;25.336;2023-03-14T05:36:07;97187.88;;;-0.55;85.37
34297;BME280;20564;42.902;25.336;2023-03-14T05:38:35;97181.50;;;-0.48;85.67
34297;BME280;20564;42.902;25.336;2023-03-14T05:41:06;97190.97;;;-0.30;85.01
34297;BME280;20564;42.902;25.336;2023-03-14T05:43:36;97193.81;;;-0.17;85.26
34297;BME280;20564;42.902;25.336;2023-03-14T05:46:17;97195.59;;;0.00;85.20
34297;BME280;20564;42.902;25.336;2023-03-14T05:49:00;97195.13;;;0.27;84.71
34297;BME280;20564;42.902;25.336;2023-03-14T05:51:29;97184.44;;;0.50;82.46
34297;BME280;20564;42.902;25.336;2023-03-14T05:54:20;97201.88;;;0.64;80.64
34297;BME280;20564;42.902;25.336;2023-03-14T05:56:49;97201.16;;;0.78;81.45
34297;BME280;20564;42.902;25.336;2023-03-14T05:59:24;97204.63;;;0.94;81.83
34297;BME280;20564;42.902;25.336;2023-03-14T06:01:53;97198.97;;;1.19;80.60
34297;BME280;20564;42.902;25.336;2023-03-14T06:04:22;97200.47;;;1.39;77.53
34297;BME280;20564;42.902;25.336;2023-03-14T06:06:53;97196.06;;;1.73;76.01
34297;BME280;20564;42.902;25.336;2023-03-14T06:09:25;97181.59;;;1.99;75.54
34297;BME280;20564;42.902;25.336;2023-03-14T06:12:11;97183.34;;;2.28;75.47
34297;BME280;20564;42.902;25.336;2023-03-14T06:14:42;97183.88;;;2.49;74.54
34297;BME280;20564;42.902;25.336;2023-03-14T06:17:10;97186.72;;;2.59;72.14
34297;BME280;20564;42.902;25.336;2023-03-14T06:19:47;97185.91;;;2.73;71.58
34297;BME280;20564;42.902;25.336;2023-03-14T06:22:39;97180.34;;;3.07;71.36
34297;BME280;20564;42.902;25.336;2023-03-14T06:25:19;97186.06;;;3.41;68.86
34297;BME280;20564;42.902;25.336;2023-03-14T06:27:50;97173.06;;;3.68;65.85
34297;BME280;20564;42.902;25.336;2023-03-14T06:30:23;97188.47;;;3.98;64.50
34297;BME280;20564;42.902;25.336;2023-03-14T06:33:01;97179.06;;;4.23;64.02
34297;BME280;20564;42.902;25.336;2023-03-14T06:35:31;97188.25;;;4.41;62.87
34297;BME280;20564;42.902;25.336;2023-03-14T06:38:01;97183.41;;;4.62;61.38
34297;BME280;20564;42.902;25.336;2023-03-14T06:40:30;97174.84;;;4.98;60.56
34297;BME280;20564;42.902;25.336;2023-03-14T06:43:01;97171.56;;;5.20;59.48
34297;BME280;20564;42.902;25.336;2023-03-14T06:45:30;97174.94;;;5.46;57.54
34297;BME280;20564;42.902;25.336;2023-03-14T06:48:00;97161.06;;;5.70;54.46
34297;BME280;20564;42.902;25.336;2023-03-14T06:50:30;97162.69;;;5.96;51.17
34297;BME280;20564;42.902;25.336;2023-03-14T06:53:00;97159.19;;;6.20;52.61
34297;BME280;20564;42.902;25.336;2023-03-14T06:55:31;97158.06;;;6.46;50.93
34297;BME280;20564;42.902;25.336;2023-03-14T06:58:11;97151.13;;;6.69;47.91
34297;BME280;20564;42.902;25.336;2023-03-14T07:00:47;97147.44;;;6.94;47.94
34297;BME280;20564;42.902;25.336;2023-03-14T07:03:16;97144.34;;;7.12;46.60
34297;BME280;20564;42.902;25.336;2023-03-14T07:05:49;97145.03;;;7.36;48.24
34297;BME280;20564;42.902;25.336;2023-03-14T07:08:19;97136.88;;;7.73;46.41
34297;BME280;20564;42.902;25.336;2023-03-14T07:10:55;97130.03;;;8.14;43.85
34297;BME280;20564;42.902;25.336;2023-03-14T07:13:24;97122.78;;;8.38;42.95
34297;BME280;20564;42.902;25.336;2023-03-14T07:15:52;97126.59;;;8.76;41.22
34297;BME280;20564;42.902;25.336;2023-03-14T07:18:20;97115.91;;;8.99;40.30
34297;BME280;20564;42.902;25.336;2023-03-14T07:20:56;97115.44;;;9.24;41.70
34297;BME280;20564;42.902;25.336;2023-03-14T07:23:24;97110.53;;;9.50;42.00
34297;BME280;20564;42.902;25.336;2023-03-14T07:25:52;97113.22;;;9.70;39.86
34297;BME280;20564;42.902;25.336;2023-03-14T07:28:21;97101.72;;;9.90;40.59
34297;BME280;20564;42.902;25.336;2023-03-14T07:30:53;97105.06;;;10.21;39.56
34297;BME280;20564;42.902;25.336;2023-03-14T07:33:22;97103.63;;;10.56;36.35
34297;BME280;20564;42.902;25.336;2023-03-14T07:35:53;97098.91;;;10.69;36.30
34297;BME280;20564;42.902;25.336;2023-03-14T07:38:20;97088.81;;;11.02;34.65
34297;BME280;20564;42.902;25.336;2023-03-14T07:40:48;97081.91;;;11.19;35.26
34297;BME280;20564;42.902;25.336;2023-03-14T07:43:16;97080.50;;;11.24;34.46
34297;BME280;20564;42.902;25.336;2023-03-14T07:45:46;97071.06;;;11.49;33.01
34297;BME280;20564;42.902;25.336;2023-03-14T07:48:28;97078.88;;;11.87;32.62
34297;BME280;20564;42.902;25.336;2023-03-14T07:51:02;97067.25;;;12.15;30.95
34297;BME280;20564;42.902;25.336;2023-03-14T07:53:29;97073.06;;;12.45;31.88
34297;BME280;20564;42.902;25.336;2023-03-14T07:55:56;97054.75;;;12.69;31.74
34297;BME280;20564;42.902;25.336;2023-03-14T07:58:23;97053.91;;;12.95;33.31
34297;BME280;20564;42.902;25.336;2023-03-14T08:00:51;97049.78;;;13.35;31.21
34297;BME280;20564;42.902;25.336;2023-03-14T08:03:21;97034.94;;;13.58;29.86
34297;BME280;20564;42.902;25.336;2023-03-14T08:05:50;97034.31;;;13.81;29.33
34297;BME280;20564;42.902;25.336;2023-03-14T08:08:18;97031.69;;;14.05;28.86
34297;BME280;20564;42.902;25.336;2023-03-14T08:10:45;97029.03;;;14.13;29.20
34297;BME280;20564;42.902;25.336;2023-03-14T08:13:13;97031.34;;;14.08;29.91
34297;BME280;20564;42.902;25.336;2023-03-14T08:15:41;97026.03;;;14.24;27.76
34297;BME280;20564;42.902;25.336;2023-03-14T08:18:18;97018.75;;;14.35;30.36
34297;BME280;20564;42.902;25.336;2023-03-14T08:20:52;97025.72;;;14.52;28.75
34297;BME280;20564;42.902;25.336;2023-03-14T08:23:23;97014.91;;;14.70;28.87
34297;BME280;20564;42.902;25.336;2023-03-14T08:25:53;97008.03;;;14.92;28.02
34297;BME280;20564;42.902;25.336;2023-03-14T08:28:21;97012.09;;;15.11;27.19
34297;BME280;20564;42.902;25.336;2023-03-14T08:30:48;97008.47;;;15.35;26.53
34297;BME280;20564;42.902;25.336;2023-03-14T08:33:16;97006.69;;;15.27;26.02
34297;BME280;20564;42.902;25.336;2023-03-14T08:35:47;96999.63;;;15.42;25.46
34297;BME280;20564;42.902;25.336;2023-03-14T08:38:14;96998.00;;;15.64;25.42
34297;BME280;20564;42.902;25.336;2023-03-14T08:40:42;97007.84;;;15.87;25.13
34297;BME280;20564;42.902;25.336;2023-03-14T08:43:13;96992.75;;;15.87;22.42
34297;BME280;20564;42.902;25.336;2023-03-14T08:45:42;96995.09;;;16.05;23.32
34297;BME280;20564;42.902;25.336;2023-03-14T08:48:11;96995.28;;;16.19;22.91
34297;BME280;20564;42.902;25.336;2023-03-14T08:50:43;96997.59;;;16.36;23.04
34297;BME280;20564;42.902;25.336;2023-03-14T08:53:28;96979.47;;;16.25;21.90
34297;BME280;20564;42.902;25.336;2023-03-14T08:56:01;96969.88;;;16.39;22.68
34297;BME280;20564;42.902;25.336;2023-03-14T08:58:30;96976.72;;;16.33;22.81
34297;BME280;20564;42.902;25.336;2023-03-14T09:00:59;96977.47;;;16.42;21.88
34297;BME280;20564;42.902;25.336;2023-03-14T09:03:27;96967.13;;;16.47;21.97
34297;BME280;20564;42.902;25.336;2023-03-14T09:06:08;96968.94;;;16.61;21.70
34297;BME280;20564;42.902;25.336;2023-03-14T09:08:43;96962.25;;;16.51;22.66
34297;BME280;20564;42.902;25.336;2023-03-14T09:11:14;96963.53;;;16.55;20.91
34297;BME280;20564;42.902;25.336;2023-03-14T09:13:42;96961.81;;;16.47;21.72
34297;BME280;20564;42.902;25.336;2023-03-14T09:16:19;96948.78;;;16.67;21.50
34297;BME280;20564;42.902;25.336;2023-03-14T09:18:50;96952.84;;;16.78;22.19
34297;BME280;20564;42.902;25.336;2023-03-14T09:21:21;96942.94;;;16.86;21.15
34297;BME280;20564;42.902;25.336;2023-03-14T09:24:00;96940.28;;;16.86;22.38
34297;BME280;20564;42.902;25.336;2023-03-14T09:26:30;96941.09;;;16.87;21.61
34297;BME280;20564;42.902;25.336;2023-03-14T09:29:00;96937.06;;;16.91;21.11
34297;BME280;20564;42.902;25.336;2023-03-14T09:31:34;96931.13;;;17.10;21.15
34297;BME280;20564;42.902;25.336;2023-03-14T09:34:04;96926.41;;;17.27;21.64
34297;BME280;20564;42.902;25.336;2023-03-14T09:36:47;96923.06;;;17.40;21.17
34297;BME280;20564;42.902;25.336;2023-03-14T09:39:19;96918.38;;;17.42;21.03
34297;BME280;20564;42.902;25.336;2023-03-14T09:41:51;96918.31;;;17.35;20.90
34297;BME280;20564;42.902;25.336;2023-03-14T09:44:32;96906.19;;;17.54;21.15
34297;BME280;20564;42.902;25.336;2023-03-14T09:47:09;96898.88;;;17.56;21.24
34297;BME280;20564;42.902;25.336;2023-03-14T09:49:40;96902.66;;;17.47;20.53
34297;BME280;20564;42.902;25.336;2023-03-14T09:54:53;96898.50;;;17.59;20.29
34297;BME280;20564;42.902;25.336;2023-03-14T09:57:26;96889.56;;;17.46;22.06
34297;BME280;20564;42.902;25.336;2023-03-14T10:00:04;96884.47;;;17.51;20.63
34297;BME280;20564;42.902;25.336;2023-03-14T10:02:54;96882.09;;;17.56;20.88
34297;BME280;20564;42.902;25.336;2023-03-14T10:05:25;96892.81;;;17.69;20.90
34297;BME280;20564;42.902;25.336;2023-03-14T10:08:03;96883.91;;;17.77;21.21
34297;BME280;20564;42.902;25.336;2023-03-14T10:10:32;96876.56;;;17.36;20.57
34297;BME280;20564;42.902;25.336;2023-03-14T10:13:16;96862.22;;;17.58;21.55
34297;BME280;20564;42.902;25.336;2023-03-14T10:15:52;96864.63;;;17.75;21.05
34297;BME280;20564;42.902;25.336;2023-03-14T10:18:24;96859.78;;;17.78;22.70
34297;BME280;20564;42.902;25.336;2023-03-14T10:21:28;96857.22;;;17.98;21.11
34297;BME280;20564;42.902;25.336;2023-03-14T10:24:51;96861.06;;;18.17;22.13
34297;BME280;20564;42.902;25.336;2023-03-14T10:27:27;96848.00;;;17.94;20.61
34297;BME280;20564;42.902;25.336;2023-03-14T10:30:00;96841.03;;;17.93;20.54
34297;BME280;20564;42.902;25.336;2023-03-14T10:32:39;96841.06;;;18.00;20.98
34297;BME280;20564;42.902;25.336;2023-03-14T10:38:01;96826.38;;;18.11;20.88
34297;BME280;20564;42.902;25.336;2023-03-14T10:40:50;96820.50;;;18.22;21.53
34297;BME280;20564;42.902;25.336;2023-03-14T10:43:26;96823.63;;;18.32;21.38
34297;BME280;20564;42.902;25.336;2023-03-14T10:46:02;96822.59;;;18.33;21.74
34297;BME280;20564;42.902;25.336;2023-03-14T10:48:38;96818.16;;;18.05;21.33
34297;BME280;20564;42.902;25.336;2023-03-14T10:51:19;96806.19;;;17.88;21.42
34297;BME280;20564;42.902;25.336;2023-03-14T10:54:13;96800.06;;;17.94;21.64
34297;BME280;20564;42.902;25.336;2023-03-14T10:56:59;96795.91;;;17.85;22.17
34297;BME280;20564;42.902;25.336;2023-03-14T10:59:33;96792.63;;;17.83;21.61
34297;BME280;20564;42.902;25.336;2023-03-14T11:16:57;96759.81;;;17.76;23.52
34297;BME280;20564;42.902;25.336;2023-03-14T11:24:49;96726.75;;;17.98;22.60
34297;BME280;20564;42.902;25.336;2023-03-14T11:33:31;96703.06;;;18.10;23.26
34297;BME280;20564;42.902;25.336;2023-03-14T11:36:06;96699.75;;;18.08;22.18
34297;BME280;20564;42.902;25.336;2023-03-14T11:38:55;96695.69;;;18.19;22.49
34297;BME280;20564;42.902;25.336;2023-03-14T11:41:38;96700.19;;;18.12;22.75
34297;BME280;20564;42.902;25.336;2023-03-14T11:47:34;96678.06;;;18.18;22.49
34297;BME280;20564;42.902;25.336;2023-03-14T11:50:13;96685.00;;;18.12;23.66
34297;BME280;20564;42.902;25.336;2023-03-14T11:52:48;96684.56;;;17.95;23.08
34297;BME280;20564;42.902;25.336;2023-03-14T11:58:00;96665.16;;;17.67;23.11
34297;BME280;20564;42.902;25.336;2023-03-14T12:00:38;96674.06;;;17.87;23.71
34297;BME280;20564;42.902;25.336;2023-03-14T12:03:39;96667.63;;;17.75;23.84
34297;BME280;20564;42.902;25.336;2023-03-14T12:08:58;96665.16;;;17.73;23.94
34297;BME280;20564;42.902;25.336;2023-03-14T12:11:32;96658.16;;;17.66;23.08
34297;BME280;20564;42.902;25.336;2023-03-14T12:14:03;96652.78;;;17.52;23.69
34297;BME280;20564;42.902;25.336;2023-03-14T12:16:39;96652.00;;;17.58;23.13
34297;BME280;20564;42.902;25.336;2023-03-14T12:21:54;96638.38;;;17.40;24.29
34297;BME280;20564;42.902;25.336;2023-03-14T12:24:26;96643.59;;;17.20;24.64
34297;BME280;20564;42.902;25.336;2023-03-14T12:27:01;96630.50;;;17.19;24.55
34297;BME280;20564;42.902;25.336;2023-03-14T12:29:57;96624.75;;;17.15;24.57
34297;BME280;20564;42.902;25.336;2023-03-14T12:32:33;96623.78;;;17.23;25.34
34297;BME280;20564;42.902;25.336;2023-03-14T12:38:05;96608.91;;;17.35;25.74
34297;BME280;20564;42.902;25.336;2023-03-14T12:40:41;96608.81;;;17.15;24.67
34297;BME280;20564;42.902;25.336;2023-03-14T12:43:30;96601.78;;;17.07;25.38
34297;BME280;20564;42.902;25.336;2023-03-14T12:46:26;96602.59;;;17.01;26.11
34297;BME280;20564;42.902;25.336;2023-03-14T12:49:05;96585.81;;;17.01;25.09
34297;BME280;20564;42.902;25.336;2023-03-14T12:51:39;96591.91;;;16.95;25.02
34297;BME280;20564;42.902;25.336;2023-03-14T13:00:44;96583.06;;;16.87;25.88
34297;BME280;20564;42.902;25.336;2023-03-14T13:02:48;96578.44;;;17.03;26.35
34297;BME280;20564;42.902;25.336;2023-03-14T13:05:19;96579.69;;;17.00;25.73
34297;BME280;20564;42.902;25.336;2023-03-14T13:10:24;96569.81;;;16.94;26.32
34297;BME280;20564;42.902;25.336;2023-03-14T13:15:35;96553.66;;;16.68;26.27
34297;BME280;20564;42.902;25.336;2023-03-14T13:18:12;96565.81;;;16.55;25.83
34297;BME280;20564;42.902;25.336;2023-03-14T13:23:31;96553.94;;;16.51;27.15
34297;BME280;20564;42.902;25.336;2023-03-14T13:26:01;96552.00;;;16.67;26.78
34297;BME280;20564;42.902;25.336;2023-03-14T13:28:32;96552.38;;;16.63;26.83
34297;BME280;20564;42.902;25.336;2023-03-14T13:31:03;96544.47;;;16.70;26.91
34297;BME280;20564;42.902;25.336;2023-03-14T13:33:33;96549.25;;;16.75;26.47
34297;BME280;20564;42.902;25.336;2023-03-14T13:36:03;96536.22;;;16.58;27.66
34297;BME280;20564;42.902;25.336;2023-03-14T13:38:35;96534.00;;;16.62;27.72
34297;BME280;20564;42.902;25.336;2023-03-14T13:41:10;96528.34;;;16.72;26.13
34297;BME280;20564;42.902;25.336;2023-03-14T13:43:43;96524.78;;;16.86;26.26
34297;BME280;20564;42.902;25.336;2023-03-14T13:46:23;96528.22;;;16.80;27.71
34297;BME280;20564;42.902;25.336;2023-03-14T13:48:56;96520.28;;;16.86;26.97
34297;BME280;20564;42.902;25.336;2023-03-14T13:51:26;96517.38;;;16.75;26.61
34297;BME280;20564;42.902;25.336;2023-03-14T13:54:01;96509.84;;;16.85;26.71
34297;BME280;20564;42.902;25.336;2023-03-14T13:56:34;96514.53;;;16.83;28.02
34297;BME280;20564;42.902;25.336;2023-03-14T13:59:28;96507.09;;;16.72;27.15
34297;BME280;20564;42.902;25.336;2023-03-14T14:02:13;96504.00;;;16.68;26.82
34297;BME280;20564;42.902;25.336;2023-03-14T14:04:44;96499.56;;;16.47;26.59
34297;BME280;20564;42.902;25.336;2023-03-14T14:07:16;96487.25;;;16.39;26.98
34297;BME280;20564;42.902;25.336;2023-03-14T14:09:51;96482.28;;;16.30;26.90
34297;BME280;20564;42.902;25.336;2023-03-14T14:12:29;96479.56;;;16.23;27.73
34297;BME280;20564;42.902;25.336;2023-03-14T14:15:09;96485.94;;;16.29;27.81
34297;BME280;20564;42.902;25.336;2023-03-14T14:17:42;96482.13;;;16.10;27.90
34297;BME280;20564;42.902;25.336;2023-03-14T14:23:18;96465.22;;;15.89;28.40
34297;BME280;20564;42.902;25.336;2023-03-14T14:25:53;96470.97;;;15.72;29.08
34297;BME280;20564;42.902;25.336;2023-03-14T14:28:33;96470.91;;;15.65;30.07
34297;BME280;20564;42.902;25.336;2023-03-14T14:33:43;96455.28;;;15.55;29.53
34297;BME280;20564;42.902;25.336;2023-03-14T14:36:22;96461.84;;;15.38;29.73
34297;BME280;20564;42.902;25.336;2023-03-14T14:38:57;96451.97;;;15.32;29.74
34297;BME280;20564;42.902;25.336;2023-03-14T14:41:31;96451.97;;;15.32;29.90
34297;BME280;20564;42.902;25.336;2023-03-14T14:44:00;96449.59;;;15.37;30.91
34297;BME280;20564;42.902;25.336;2023-03-14T14:46:30;96446.53;;;15.55;30.54